createdAt,value
2022-08-19T00:01:32.865Z,9.23
2022-08-19T00:04:09.910Z,9.52
2022-08-19T00:06:39.750Z,9.18
2022-08-19T00:09:09.962Z,9.32
2022-08-19T00:11:39.129Z,8.82
2022-08-19T00:14:09.641Z,8.75
2022-08-19T00:16:42.331Z,9.30
2022-08-19T00:19:11.591Z,8.93
2022-08-19T00:21:40.729Z,9.13
2022-08-19T00:24:10.238Z,9.30
2022-08-19T00:26:39.631Z,9.38
2022-08-19T00:29:09.183Z,9.68
2022-08-19T00:31:38.969Z,9.75
2022-08-19T00:34:07.021Z,9.38
2022-08-19T00:36:35.368Z,9.07
2022-08-19T00:39:03.626Z,9.25
2022-08-19T00:41:32.214Z,9.48
2022-08-19T00:44:02.832Z,9.82
2022-08-19T00:46:32.502Z,10.00
2022-08-19T00:49:03.354Z,9.90
2022-08-19T00:51:34.358Z,9.80
2022-08-19T00:54:03.878Z,10.02
2022-08-19T00:56:33.134Z,10.13
2022-08-19T00:59:03.210Z,9.85
2022-08-19T01:01:31.315Z,10.23
2022-08-19T01:03:59.503Z,10.00
2022-08-19T01:06:29.029Z,10.05
2022-08-19T01:08:57.555Z,10.23
2022-08-19T01:11:25.649Z,11.07
2022-08-19T01:13:55.136Z,10.23
2022-08-19T01:16:27.585Z,10.20
2022-08-19T01:18:55.931Z,10.00
2022-08-19T01:21:33.420Z,10.20
2022-08-19T01:24:03.522Z,10.40
2022-08-19T01:26:32.042Z,11.50
2022-08-19T01:29:02.253Z,10.50
2022-08-19T01:31:33.551Z,10.23
2022-08-19T01:34:04.053Z,10.95
2022-08-19T01:36:34.807Z,10.27
2022-08-19T01:39:07.489Z,9.98
2022-08-19T01:41:35.838Z,10.23
2022-08-19T01:44:18.159Z,10.93
2022-08-19T01:46:49.336Z,10.50
2022-08-19T01:49:19.809Z,10.50
2022-08-19T01:51:48.544Z,9.57
2022-08-19T01:54:27.007Z,10.15
2022-08-19T01:57:02.087Z,10.50
2022-08-19T01:59:30.834Z,10.38
2022-08-19T02:01:59.073Z,10.25
2022-08-19T02:04:27.307Z,10.70
2022-08-19T02:06:55.344Z,10.45
2022-08-19T02:09:24.750Z,10.80
2022-08-19T02:11:52.813Z,10.40
2022-08-19T02:14:20.940Z,10.73
2022-08-19T02:16:49.054Z,10.40
2022-08-19T02:19:17.145Z,10.85
2022-08-19T02:21:45.805Z,10.35
2022-08-19T02:24:14.861Z,11.23
2022-08-19T02:26:44.267Z,10.73
2022-08-19T02:29:12.540Z,11.63
2022-08-19T02:31:40.577Z,11.05
2022-08-19T02:34:08.627Z,10.65
2022-08-19T02:36:36.729Z,10.93
2022-08-19T02:39:10.057Z,11.07
2022-08-19T02:41:38.542Z,11.10
2022-08-19T02:44:30.284Z,11.23
2022-08-19T02:46:56.533Z,10.95
2022-08-19T02:49:24.688Z,10.52
2022-08-19T02:51:52.723Z,11.77
2022-08-19T02:54:20.939Z,11.30
2022-08-19T02:56:48.907Z,11.30
2022-08-19T02:59:18.287Z,11.43
2022-08-19T03:01:50.985Z,11.60
2022-08-19T03:04:20.858Z,10.30
2022-08-19T03:06:49.631Z,11.63
2022-08-19T03:09:18.893Z,10.40
2022-08-19T03:11:46.937Z,11.07
2022-08-19T03:14:19.135Z,11.40
2022-08-19T03:16:49.560Z,11.00
2022-08-19T03:19:20.265Z,11.95
2022-08-19T03:21:48.485Z,11.80
2022-08-19T03:24:18.431Z,11.68
2022-08-19T03:26:48.975Z,11.65
2022-08-19T03:29:30.885Z,10.80
2022-08-19T03:32:01.867Z,10.70
2022-08-19T03:34:32.684Z,10.48
2022-08-19T03:37:05.461Z,10.32
2022-08-19T03:39:33.525Z,10.82
2022-08-19T03:42:38.928Z,11.38
2022-08-19T03:44:53.725Z,11.05
2022-08-19T03:47:21.850Z,11.32
2022-08-19T03:49:49.954Z,11.93
2022-08-19T03:52:18.048Z,11.20
2022-08-19T03:54:46.126Z,10.65
2022-08-19T03:57:14.102Z,11.98
2022-08-19T03:59:42.202Z,11.90
2022-08-19T04:02:13.883Z,10.95
2022-08-19T04:04:44.645Z,11.45
2022-08-19T04:07:16.876Z,11.88
2022-08-19T04:09:45.289Z,11.93
2022-08-19T04:12:13.581Z,12.02
2022-08-19T04:14:42.383Z,11.15
2022-08-19T04:17:14.014Z,11.00
2022-08-19T04:19:44.026Z,12.15
2022-08-19T04:22:13.395Z,12.10
2022-08-19T04:24:41.530Z,11.68
2022-08-19T04:27:09.825Z,12.15
2022-08-19T04:29:40.556Z,11.40
2022-08-19T04:32:09.949Z,11.10
2022-08-19T04:35:01.118Z,11.05
2022-08-19T04:37:35.027Z,11.48
2022-08-19T04:40:23.253Z,11.75
2022-08-19T04:42:51.285Z,10.00
2022-08-19T04:45:19.434Z,10.70
2022-08-19T04:47:58.275Z,10.63
2022-08-19T04:50:28.817Z,10.88
2022-08-19T04:52:57.602Z,9.70
2022-08-19T04:55:27.619Z,10.07
2022-08-19T04:57:56.246Z,9.80
2022-08-19T05:00:24.285Z,10.10
2022-08-19T05:02:52.729Z,10.30
2022-08-19T05:05:20.905Z,10.57
2022-08-19T05:07:50.461Z,9.88
2022-08-19T05:10:18.597Z,10.63
2022-08-19T05:12:46.785Z,10.30
2022-08-19T05:15:15.122Z,10.73
2022-08-19T05:18:03.506Z,11.00
2022-08-19T05:20:48.699Z,11.00
2022-08-19T05:23:21.886Z,10.25
2022-08-19T05:25:51.256Z,11.02
2022-08-19T05:28:19.630Z,10.63
2022-08-19T05:30:49.166Z,10.48
2022-08-19T05:33:17.240Z,10.18
2022-08-19T05:35:45.426Z,10.85
2022-08-19T05:38:13.763Z,10.98
2022-08-19T05:40:43.868Z,10.15
2022-08-19T05:43:11.884Z,11.05
2022-08-19T05:45:43.657Z,11.23
2022-08-19T05:48:13.610Z,11.07
2022-08-19T05:50:43.591Z,10.52
2022-08-19T05:53:11.641Z,11.45
2022-08-19T05:55:40.872Z,12.02
2022-08-19T05:58:10.433Z,12.45
2022-08-19T06:00:39.238Z,13.02
2022-08-19T06:03:11.842Z,11.45
2022-08-19T06:05:46.259Z,11.98
2022-08-19T06:08:20.271Z,12.30
2022-08-19T06:10:48.361Z,13.10
2022-08-19T06:13:18.494Z,10.85
2022-08-19T06:15:47.472Z,11.50
2022-08-19T06:18:16.196Z,11.18
2022-08-19T06:20:56.358Z,11.95
2022-08-19T06:23:24.586Z,11.35
2022-08-19T06:25:52.631Z,12.05
2022-08-19T06:28:22.450Z,12.52
2022-08-19T06:30:51.146Z,12.60
2022-08-19T06:33:19.179Z,11.68
2022-08-19T06:35:47.209Z,11.93
2022-08-19T06:38:15.285Z,11.18
2022-08-19T06:43:12.284Z,10.25
2022-08-19T06:45:43.898Z,10.95
2022-08-19T06:48:11.929Z,10.43
2022-08-19T06:50:41.011Z,10.98
2022-08-19T06:53:09.526Z,8.77
2022-08-19T06:55:38.675Z,8.32
2022-08-19T06:58:07.228Z,8.30
2022-08-19T07:00:35.551Z,8.75
2022-08-19T07:03:08.471Z,8.23
2022-08-19T07:05:45.880Z,8.07
2022-08-19T07:08:14.908Z,7.55
2022-08-19T07:10:45.942Z,7.80
2022-08-19T07:13:14.165Z,7.15
2022-08-19T07:15:42.286Z,7.68
2022-08-19T07:18:15.397Z,7.20
2022-08-19T07:20:44.281Z,7.47
2022-08-19T07:23:16.029Z,7.63
2022-08-19T07:25:52.751Z,7.87
2022-08-19T07:28:23.997Z,7.40
2022-08-19T07:30:53.145Z,7.68
2022-08-19T07:33:23.287Z,6.82
2022-08-19T07:35:51.455Z,7.03
2022-08-19T07:38:19.773Z,7.30
2022-08-19T07:40:48.076Z,6.93
2022-08-19T07:43:18.626Z,7.47
2022-08-19T07:45:48.234Z,6.87
2022-08-19T07:48:16.694Z,7.32
2022-08-19T07:50:46.467Z,7.22
2022-08-19T07:53:14.696Z,6.80
2022-08-19T07:55:44.063Z,7.65
2022-08-19T07:58:14.307Z,7.22
2022-08-19T08:00:43.306Z,7.28
2022-08-19T08:03:12.245Z,7.07
2022-08-19T08:05:57.997Z,8.93
2022-08-19T08:08:48.343Z,7.05
2022-08-19T08:11:19.140Z,7.25
2022-08-19T08:14:01.432Z,7.37
2022-08-19T08:16:39.520Z,7.05
2022-08-19T08:19:20.266Z,6.78
2022-08-19T08:21:52.826Z,6.97
2022-08-19T08:24:22.406Z,7.47
2022-08-19T08:26:57.638Z,6.68
2022-08-19T08:29:26.930Z,6.80
2022-08-19T08:32:03.760Z,7.03
2022-08-19T08:34:42.395Z,6.68
2022-08-19T08:37:10.549Z,7.60
2022-08-19T08:39:40.121Z,6.68
2022-08-19T08:42:16.851Z,6.50
2022-08-19T08:47:33.622Z,6.85
2022-08-19T08:50:07.139Z,6.90
2022-08-19T08:52:39.438Z,6.78
2022-08-19T08:55:13.001Z,6.90
2022-08-19T08:57:46.626Z,6.40
2022-08-19T09:00:25.208Z,7.05
2022-08-19T09:02:53.340Z,7.15
2022-08-19T09:05:26.069Z,6.53
2022-08-19T09:08:02.174Z,6.83
2022-08-19T09:10:44.349Z,6.80
2022-08-19T09:13:24.339Z,7.07
2022-08-19T09:15:59.297Z,7.32
2022-08-19T09:18:29.684Z,7.00
2022-08-19T09:20:58.807Z,7.22
2022-08-19T09:23:27.239Z,6.75
2022-08-19T09:25:57.202Z,6.88
2022-08-19T09:28:27.462Z,8.18
2022-08-19T09:30:55.671Z,6.97
2022-08-19T09:33:24.297Z,7.03
2022-08-19T09:35:53.765Z,6.95
2022-08-19T09:38:22.402Z,6.63
2022-08-19T09:40:51.342Z,6.85
2022-08-19T09:43:33.169Z,6.70
2022-08-19T09:46:02.419Z,7.30
2022-08-19T09:48:30.783Z,6.95
2022-08-19T09:51:05.850Z,6.93
2022-08-19T09:53:34.289Z,6.97
2022-08-19T09:56:04.202Z,7.20
2022-08-19T09:58:34.707Z,7.20
2022-08-19T10:01:04.403Z,6.90
2022-08-19T10:03:34.673Z,6.97
2022-08-19T10:06:05.497Z,6.70
2022-08-19T10:08:50.402Z,6.82
2022-08-19T10:11:28.139Z,7.30
2022-08-19T10:14:08.051Z,7.30
2022-08-19T10:16:40.326Z,7.13
2022-08-19T10:19:08.524Z,7.40
2022-08-19T10:21:36.759Z,7.28
2022-08-19T10:24:07.288Z,7.15
2022-08-19T10:26:43.062Z,7.20
2022-08-19T10:29:12.990Z,7.10
2022-08-19T10:32:02.829Z,7.43
2022-08-19T10:34:32.661Z,7.50
2022-08-19T10:37:02.278Z,7.03
2022-08-19T10:39:32.595Z,7.70
2022-08-19T10:42:02.549Z,6.95
2022-08-19T10:44:32.738Z,7.63
2022-08-19T10:47:01.635Z,7.68
2022-08-19T10:49:30.058Z,6.68
2022-08-19T10:52:18.637Z,6.97
2022-08-19T10:55:08.573Z,7.15
2022-08-19T11:00:27.091Z,7.20
2022-08-19T11:02:55.292Z,7.22
2022-08-19T11:05:24.304Z,7.45
2022-08-19T11:07:53.510Z,7.07
2022-08-19T11:10:22.446Z,6.68
2022-08-19T11:12:54.105Z,7.30
2022-08-19T11:15:22.390Z,7.05
2022-08-19T11:17:55.353Z,7.13
2022-08-19T11:20:24.747Z,6.97
2022-08-19T11:22:55.317Z,7.20
2022-08-19T11:25:23.588Z,6.88
2022-08-19T11:27:53.513Z,6.85
2022-08-19T11:30:22.060Z,7.32
2022-08-19T11:32:51.582Z,6.53
2022-08-19T11:35:21.118Z,6.50
2022-08-19T11:37:49.289Z,6.88
2022-08-19T11:40:18.368Z,7.15
2022-08-19T11:42:58.215Z,7.38
2022-08-19T11:45:27.150Z,7.50
2022-08-19T11:47:57.125Z,7.07
2022-08-19T11:50:26.061Z,6.97
2022-08-19T11:52:56.734Z,5.88
2022-08-19T11:55:25.610Z,6.05
2022-08-19T11:57:53.853Z,6.47
2022-08-19T12:00:22.749Z,6.78
2022-08-19T12:02:51.200Z,6.57
2022-08-19T12:05:20.922Z,6.38
2022-08-19T12:07:49.158Z,6.03
2022-08-19T12:10:18.461Z,6.30
2022-08-19T12:12:55.810Z,6.32
2022-08-19T12:15:28.912Z,6.20
2022-08-19T12:18:06.770Z,6.57
2022-08-19T12:20:39.236Z,6.50
2022-08-19T12:23:10.002Z,5.90
2022-08-19T12:25:38.810Z,6.38
2022-08-19T12:28:07.462Z,6.60
2022-08-19T12:30:35.640Z,5.95
2022-08-19T12:33:03.805Z,6.00
2022-08-19T12:35:31.975Z,5.93
2022-08-19T12:38:03.934Z,6.18
2022-08-19T12:40:32.094Z,6.00
2022-08-19T12:43:00.331Z,6.00
2022-08-19T12:45:28.868Z,6.03
2022-08-19T12:47:57.287Z,6.00
2022-08-19T12:50:25.959Z,6.13
2022-08-19T12:52:54.437Z,6.20
2022-08-19T12:55:24.411Z,6.30
2022-08-19T12:57:52.739Z,5.93
2022-08-19T13:00:23.185Z,6.13
2022-08-19T13:02:53.136Z,6.25
2022-08-19T13:05:25.170Z,5.75
2022-08-19T13:07:57.001Z,6.15
2022-08-19T13:10:29.076Z,5.60
2022-08-19T13:12:57.983Z,5.72
2022-08-19T13:15:26.470Z,5.28
2022-08-19T13:17:57.149Z,5.63
2022-08-19T13:20:25.607Z,5.45
2022-08-19T13:22:54.467Z,5.72
2022-08-19T13:25:23.632Z,5.78
2022-08-19T13:27:53.598Z,5.65
2022-08-19T13:30:40.421Z,6.18
2022-08-19T13:33:16.575Z,5.40
2022-08-19T13:35:48.072Z,5.95
2022-08-19T13:38:18.094Z,5.93
2022-08-19T13:40:47.453Z,6.28
2022-08-19T13:43:23.165Z,5.70
2022-08-19T13:45:57.372Z,5.80
2022-08-19T13:48:27.653Z,6.18
2022-08-19T13:50:56.853Z,6.00
2022-08-19T13:53:25.765Z,6.00
2022-08-19T13:55:54.785Z,5.93
2022-08-19T13:58:25.105Z,6.22
2022-08-19T14:00:53.707Z,6.03
2022-08-19T14:03:22.586Z,5.70
2022-08-19T14:05:50.612Z,5.90
2022-08-19T14:08:19.717Z,5.53
2022-08-19T14:10:49.623Z,6.03
2022-08-19T14:13:19.823Z,6.00
2022-08-19T14:15:49.529Z,6.60
2022-08-19T14:18:18.994Z,5.90
2022-08-19T14:20:47.430Z,6.18
2022-08-19T14:23:15.795Z,6.22
2022-08-19T14:25:44.296Z,6.03
2022-08-19T14:28:12.600Z,5.63
2022-08-19T14:30:40.744Z,5.95
2022-08-19T14:33:10.620Z,5.90
2022-08-19T14:35:39.184Z,5.50
2022-08-19T14:38:09.254Z,5.75
2022-08-19T14:40:37.659Z,5.68
2022-08-19T14:43:07.282Z,5.60
2022-08-19T14:45:38.287Z,5.95
2022-08-19T14:48:07.190Z,5.63
2022-08-19T14:50:38.703Z,6.63
2022-08-19T14:53:12.645Z,5.90
2022-08-19T14:55:44.627Z,5.90
2022-08-19T14:58:28.805Z,6.20
2022-08-19T15:00:59.965Z,6.60
2022-08-19T15:03:28.607Z,6.13
2022-08-19T15:05:59.034Z,5.22
2022-08-19T15:08:27.443Z,6.43
2022-08-19T15:10:55.626Z,6.70
2022-08-19T15:13:25.734Z,7.25
2022-08-19T15:15:53.839Z,6.95
2022-08-19T15:18:22.852Z,7.72
2022-08-19T15:20:52.070Z,7.55
2022-08-19T15:23:22.805Z,6.60
2022-08-19T15:25:54.465Z,8.25
2022-08-19T15:28:22.820Z,7.10
2022-08-19T15:30:52.070Z,6.07
2022-08-19T15:33:21.453Z,6.80
2022-08-19T15:35:51.818Z,6.18
2022-08-19T15:38:23.888Z,6.18
2022-08-19T15:40:52.348Z,6.43
2022-08-19T15:43:22.557Z,6.18
2022-08-19T15:45:50.763Z,7.18
2022-08-19T15:48:19.010Z,6.70
2022-08-19T15:50:47.517Z,6.20
2022-08-19T15:53:15.620Z,6.53
2022-08-19T15:55:48.684Z,5.93
2022-08-19T15:58:34.944Z,6.40
2022-08-19T16:01:24.093Z,6.47
2022-08-19T16:04:14.679Z,6.10
2022-08-19T16:06:46.632Z,6.55
2022-08-19T16:09:16.173Z,5.95
2022-08-19T16:11:56.563Z,6.50
2022-08-19T16:14:26.461Z,6.85
2022-08-19T16:16:57.015Z,6.32
2022-08-19T16:19:26.065Z,6.72
2022-08-19T16:21:56.479Z,6.00
2022-08-19T16:24:27.749Z,6.63
2022-08-19T16:26:58.549Z,6.28
2022-08-19T16:29:33.808Z,6.63
2022-08-19T16:32:04.132Z,6.15
2022-08-19T16:34:33.627Z,6.82
2022-08-19T16:37:02.223Z,6.35
2022-08-19T16:39:30.454Z,6.18
2022-08-19T16:42:01.543Z,6.25
2022-08-19T16:44:30.822Z,6.53
2022-08-19T16:46:59.887Z,6.28
2022-08-19T16:49:52.907Z,6.25
2022-08-19T16:52:17.007Z,6.40
2022-08-19T16:54:45.451Z,6.97
2022-08-19T16:57:15.220Z,6.40
2022-08-19T16:59:49.243Z,6.38
2022-08-19T17:02:18.360Z,6.72
2022-08-19T17:04:57.113Z,6.55
2022-08-19T17:07:26.678Z,7.03
2022-08-19T17:09:55.258Z,6.97
2022-08-19T17:12:31.897Z,7.00
2022-08-19T17:15:01.366Z,7.07
2022-08-19T17:17:32.293Z,7.60
2022-08-19T17:20:01.377Z,7.30
2022-08-19T17:22:29.934Z,7.18
2022-08-19T17:24:58.874Z,7.22
2022-08-19T17:27:32.383Z,7.63
2022-08-19T17:30:02.737Z,7.35
2022-08-19T17:32:33.402Z,7.25
2022-08-19T17:35:01.421Z,7.22
2022-08-19T17:37:29.779Z,6.53
2022-08-19T17:39:57.871Z,7.15
2022-08-19T17:42:26.525Z,7.10
2022-08-19T17:44:59.661Z,7.35
2022-08-19T17:49:56.855Z,7.22
2022-08-19T17:52:25.173Z,7.55
2022-08-19T17:54:53.400Z,7.55
2022-08-19T17:57:21.958Z,7.18
2022-08-19T17:59:50.516Z,7.25
2022-08-19T18:02:21.440Z,7.43
2022-08-19T18:04:50.139Z,7.35
2022-08-19T18:07:19.609Z,7.00
2022-08-19T18:09:51.659Z,7.57
2022-08-19T18:14:52.094Z,6.82
2022-08-19T18:17:23.427Z,6.78
2022-08-19T18:19:51.639Z,7.13
2022-08-19T18:22:26.812Z,7.43
2022-08-19T18:24:55.805Z,6.78
2022-08-19T18:27:23.886Z,7.18
2022-08-19T18:29:51.969Z,7.05
2022-08-19T18:32:23.892Z,7.60
2022-08-19T18:34:52.635Z,7.03
2022-08-19T18:37:21.553Z,7.07
2022-08-19T18:40:07.110Z,6.50
2022-08-19T18:42:52.330Z,7.05
2022-08-19T18:45:37.862Z,6.72
2022-08-19T18:48:27.716Z,6.60
2022-08-19T18:50:58.674Z,7.65
2022-08-19T18:53:29.162Z,6.95
2022-08-19T18:55:57.804Z,6.35
2022-08-19T18:58:34.123Z,6.97
2022-08-19T19:01:10.846Z,6.70
2022-08-19T19:03:45.369Z,6.45
2022-08-19T19:06:15.084Z,7.03
2022-08-19T19:08:43.457Z,6.95
2022-08-19T19:11:11.513Z,6.65
2022-08-19T19:13:41.115Z,7.22
2022-08-19T19:16:11.670Z,6.70
2022-08-19T19:18:41.085Z,6.95
2022-08-19T19:21:10.271Z,6.63
2022-08-19T19:23:40.801Z,6.25
2022-08-19T19:26:10.679Z,6.57
2022-08-19T19:28:46.250Z,6.82
2022-08-19T19:31:16.205Z,6.60
2022-08-19T19:33:46.845Z,6.70
2022-08-19T19:36:15.519Z,7.22
2022-08-19T19:38:48.588Z,6.97
2022-08-19T19:41:19.032Z,6.82
2022-08-19T19:43:47.022Z,7.22
2022-08-19T19:46:15.653Z,7.10
2022-08-19T19:48:45.162Z,6.25
2022-08-19T19:51:14.243Z,6.50
2022-08-19T19:53:42.920Z,7.40
2022-08-19T19:56:11.092Z,6.88
2022-08-19T19:58:39.782Z,6.85
2022-08-19T20:01:12.523Z,7.20
2022-08-19T20:03:47.184Z,7.03
2022-08-19T20:06:17.517Z,7.38
2022-08-19T20:09:04.524Z,6.70
2022-08-19T20:11:35.547Z,6.90
2022-08-19T20:14:06.945Z,6.75
2022-08-19T20:16:35.047Z,6.70
2022-08-19T20:19:04.418Z,7.30
2022-08-19T20:21:33.313Z,6.65
2022-08-19T20:24:09.605Z,6.95
2022-08-19T20:26:38.869Z,6.75
2022-08-19T20:29:13.889Z,7.00
2022-08-19T20:31:58.031Z,6.95
2022-08-19T20:34:29.010Z,7.13
2022-08-19T20:36:57.191Z,7.05
2022-08-19T20:39:25.279Z,6.95
2022-08-19T20:41:53.735Z,7.28
2022-08-19T20:44:21.779Z,6.93
2022-08-19T20:46:55.601Z,7.18
2022-08-19T20:49:27.207Z,7.57
2022-08-19T20:51:58.581Z,6.97
2022-08-19T20:54:27.225Z,7.32
2022-08-19T20:56:55.330Z,6.80
2022-08-19T20:59:24.486Z,6.55
2022-08-19T21:01:52.863Z,7.05
2022-08-19T21:04:22.483Z,7.30
2022-08-19T21:06:51.096Z,7.40
2022-08-19T21:09:20.471Z,7.28
2022-08-19T21:11:49.223Z,7.40
2022-08-19T21:14:19.123Z,7.20
2022-08-19T21:16:47.345Z,6.90
2022-08-19T21:19:15.389Z,7.10
2022-08-19T21:21:43.472Z,7.47
2022-08-19T21:24:11.703Z,7.35
2022-08-19T21:26:41.790Z,7.80
2022-08-19T21:29:09.846Z,7.75
2022-08-19T21:31:37.829Z,7.00
2022-08-19T21:34:06.081Z,6.82
2022-08-19T21:36:34.638Z,7.50
2022-08-19T21:39:02.758Z,7.55
2022-08-19T21:41:30.820Z,7.22
2022-08-19T21:44:00.286Z,7.22
2022-08-19T21:46:28.525Z,7.20
2022-08-19T21:48:56.553Z,6.97
2022-08-19T21:51:24.579Z,7.25
2022-08-19T21:53:53.583Z,7.05
2022-08-19T21:56:21.880Z,7.18
2022-08-19T21:58:50.055Z,7.28
2022-08-19T22:01:19.496Z,7.50
2022-08-19T22:03:47.630Z,6.35
2022-08-19T22:06:16.456Z,7.28
2022-08-19T22:08:45.006Z,6.53
2022-08-19T22:11:13.297Z,6.90
2022-08-19T22:13:41.757Z,7.47
2022-08-19T22:16:11.169Z,6.88
2022-08-19T22:18:40.920Z,6.65
2022-08-19T22:21:11.899Z,7.03
2022-08-19T22:23:41.580Z,7.00
2022-08-19T22:26:10.354Z,7.05
2022-08-19T22:28:38.826Z,7.53
2022-08-19T22:31:08.038Z,7.40
2022-08-19T22:33:37.028Z,6.75
2022-08-19T22:36:08.656Z,6.65
2022-08-19T22:38:37.452Z,7.20
2022-08-19T22:41:07.607Z,7.43
2022-08-19T22:43:37.749Z,6.70
2022-08-19T22:46:06.555Z,7.38
2022-08-19T22:48:45.802Z,7.57
2022-08-19T22:51:33.559Z,7.60
2022-08-19T22:54:02.550Z,7.53
2022-08-19T22:56:31.317Z,7.57
2022-08-19T22:58:59.919Z,7.45
2022-08-19T23:01:30.566Z,7.60
2022-08-19T23:04:00.332Z,7.10
2022-08-19T23:06:35.667Z,7.13
2022-08-19T23:11:41.413Z,7.10
2022-08-19T23:14:12.727Z,7.85
2022-08-19T23:16:42.008Z,7.18
2022-08-19T23:19:11.176Z,7.82
2022-08-19T23:21:41.443Z,7.10
2022-08-19T23:24:10.679Z,7.85
2022-08-19T23:26:39.038Z,8.07
2022-08-19T23:29:24.639Z,7.47
2022-08-19T23:31:52.734Z,7.60
2022-08-19T23:34:21.590Z,7.95
2022-08-19T23:36:50.995Z,7.85
2022-08-19T23:39:19.489Z,7.90
2022-08-19T23:41:47.677Z,7.65
2022-08-19T23:44:15.652Z,7.47
2022-08-19T23:46:54.493Z,8.07
2022-08-19T23:49:22.832Z,7.95
2022-08-19T23:51:52.282Z,8.20
2022-08-19T23:54:20.326Z,7.85
2022-08-19T23:56:48.333Z,7.50
2022-08-19T23:59:16.363Z,7.93
